sensor_id;sensor_type;location;lat;lon;timestamp;pressure;altitude;pressure_sealevel;temperature;humidity
16016;BME280;8112;53.592;10.184;2023-02-15T00:02:29;102754.16;;;4.60;100.00
16016;BME280;8112;53.592;10.184;2023-02-15T00:07:32;102743.69;;;4.69;100.00
16016;BME280;8112;53.592;10.184;2023-02-15T00:12:34;102741.94;;;4.64;100.00
16016;BME280;8112;53.592;10.184;2023-02-15T00:17:36;102741.09;;;4.60;100.00
16016;BME280;8112;53.592;10.184;2023-02-15T00:22:40;102738.50;;;4.60;100.00
16016;BME280;8112;53.592;10.184;2023-02-15T00:27:41;102731.53;;;4.67;100.00
16016;BME280;8112;53.592;10.184;2023-02-15T00:32:43;102730.63;;;4.69;100.00
16016;BME280;8112;53.592;10.184;2023-02-15T00:37:47;102724.53;;;4.70;100.00
16016;BME280;8112;53.592;10.184;2023-02-15T00:42:49;102716.69;;;4.77;100.00
16016;BME280;8112;53.592;10.184;2023-02-15T00:47:51;102716.69;;;4.67;100.00
16016;BME280;8112;53.592;10.184;2023-02-15T00:52:55;102713.19;;;4.71;100.00
16016;BME280;8112;53.592;10.184;2023-02-15T00:57:57;102714.09;;;4.66;100.00
16016;BME280;8112;53.592;10.184;2023-02-15T01:02:59;102710.63;;;4.65;100.00
16016;BME280;8112;53.592;10.184;2023-02-15T01:08:03;102712.34;;;4.65;100.00
16016;BME280;8112;53.592;10.184;2023-02-15T01:13:05;102713.25;;;4.59;100.00
16016;BME280;8112;53.592;10.184;2023-02-15T01:18:08;102703.66;;;4.56;100.00
16016;BME280;8112;53.592;10.184;2023-02-15T01:23:15;102693.19;;;4.66;100.00
16016;BME280;8112;53.592;10.184;2023-02-15T01:28:20;102693.22;;;4.60;100.00
16016;BME280;8112;53.592;10.184;2023-02-15T01:33:22;102687.13;;;4.53;100.00
16016;BME280;8112;53.592;10.184;2023-02-15T01:38:25;102673.22;;;4.52;100.00
16016;BME280;8112;53.592;10.184;2023-02-15T01:43:39;102670.59;;;4.59;100.00
16016;BME280;8112;53.592;10.184;2023-02-15T01:48:45;102675.81;;;4.63;100.00
16016;BME280;8112;53.592;10.184;2023-02-15T01:53:51;102673.19;;;4.60;100.00
16016;BME280;8112;53.592;10.184;2023-02-15T01:58:58;102668.00;;;4.55;100.00
16016;BME280;8112;53.592;10.184;2023-02-15T02:04:05;102664.50;;;4.58;100.00
16016;BME280;8112;53.592;10.184;2023-02-15T02:09:16;102664.50;;;4.61;100.00
16016;BME280;8112;53.592;10.184;2023-02-15T02:14:18;102654.03;;;4.55;100.00
16016;BME280;8112;53.592;10.184;2023-02-15T02:19:46;102649.69;;;4.57;100.00
16016;BME280;8112;53.592;10.184;2023-02-15T02:25:32;102647.97;;;4.57;100.00
16016;BME280;8112;53.592;10.184;2023-02-15T02:30:53;102637.56;;;4.42;100.00
16016;BME280;8112;53.592;10.184;2023-02-15T02:36:08;102627.06;;;4.48;100.00
16016;BME280;8112;53.592;10.184;2023-02-15T02:41:22;102621.88;;;4.47;100.00
16016;BME280;8112;53.592;10.184;2023-02-15T02:46:33;102610.56;;;4.43;100.00
16016;BME280;8112;53.592;10.184;2023-02-15T02:51:40;102604.50;;;4.42;100.00
16016;BME280;8112;53.592;10.184;2023-02-15T02:56:47;102603.59;;;4.47;100.00
16016;BME280;8112;53.592;10.184;2023-02-15T03:01:53;102600.97;;;4.50;100.00
16016;BME280;8112;53.592;10.184;2023-02-15T03:07:01;102605.34;;;4.45;100.00
16016;BME280;8112;53.592;10.184;2023-02-15T03:12:06;102600.13;;;4.48;100.00
16016;BME280;8112;53.592;10.184;2023-02-15T03:17:14;102577.53;;;4.34;100.00
16016;BME280;8112;53.592;10.184;2023-02-15T03:22:37;102585.38;;;4.28;100.00
16016;BME280;8112;53.592;10.184;2023-02-15T03:27:47;102574.09;;;4.26;100.00
16016;BME280;8112;53.592;10.184;2023-02-15T03:32:54;102574.06;;;4.27;100.00
16016;BME280;8112;53.592;10.184;2023-02-15T03:38:02;102561.03;;;4.23;100.00
16016;BME280;8112;53.592;10.184;2023-02-15T03:43:11;102561.91;;;4.28;100.00
16016;BME280;8112;53.592;10.184;2023-02-15T03:48:15;102568.88;;;4.23;100.00
16016;BME280;8112;53.592;10.184;2023-02-15T03:53:21;102563.63;;;4.20;100.00
16016;BME280;8112;53.592;10.184;2023-02-15T03:58:24;102554.94;;;4.24;100.00
16016;BME280;8112;53.592;10.184;2023-02-15T04:03:45;102553.16;;;4.32;100.00
16016;BME280;8112;53.592;10.184;2023-02-15T04:08:54;102549.72;;;4.21;100.00
16016;BME280;8112;53.592;10.184;2023-02-15T04:14:14;102544.50;;;4.27;100.00
16016;BME280;8112;53.592;10.184;2023-02-15T04:19:49;102537.56;;;4.13;100.00
16016;BME280;8112;53.592;10.184;2023-02-15T04:25:10;102548.06;;;3.92;100.00
16016;BME280;8112;53.592;10.184;2023-02-15T04:30:17;102540.22;;;3.99;100.00
16016;BME280;8112;53.592;10.184;2023-02-15T04:35:19;102535.88;;;3.89;100.00
16016;BME280;8112;53.592;10.184;2023-02-15T04:40:24;102525.44;;;3.92;100.00
16016;BME280;8112;53.592;10.184;2023-02-15T04:45:26;102530.66;;;3.94;100.00
16016;BME280;8112;53.592;10.184;2023-02-15T04:50:28;102527.22;;;3.85;100.00
16016;BME280;8112;53.592;10.184;2023-02-15T04:55:32;102525.47;;;3.75;100.00
16016;BME280;8112;53.592;10.184;2023-02-15T05:00:34;102516.78;;;3.64;100.00
16016;BME280;8112;53.592;10.184;2023-02-15T05:05:35;102516.78;;;3.64;100.00
16016;BME280;8112;53.592;10.184;2023-02-15T05:10:39;102500.28;;;3.65;100.00
16016;BME280;8112;53.592;10.184;2023-02-15T05:15:41;102495.06;;;3.54;100.00
16016;BME280;8112;53.592;10.184;2023-02-15T05:20:43;102488.13;;;3.45;100.00
16016;BME280;8112;53.592;10.184;2023-02-15T05:25:59;102503.81;;;3.22;100.00
16016;BME280;8112;53.592;10.184;2023-02-15T05:31:19;102499.44;;;2.94;100.00
16016;BME280;8112;53.592;10.184;2023-02-15T05:36:22;102499.44;;;3.22;100.00
16016;BME280;8112;53.592;10.184;2023-02-15T05:41:26;102492.50;;;3.26;100.00
16016;BME280;8112;53.592;10.184;2023-02-15T05:46:28;102486.41;;;3.10;100.00
16016;BME280;8112;53.592;10.184;2023-02-15T05:51:30;102485.53;;;3.23;100.00
16016;BME280;8112;53.592;10.184;2023-02-15T05:56:33;102482.94;;;3.20;100.00
16016;BME280;8112;53.592;10.184;2023-02-15T06:01:35;102479.47;;;3.07;100.00
16016;BME280;8112;53.592;10.184;2023-02-15T06:06:38;102479.47;;;3.06;100.00
16016;BME280;8112;53.592;10.184;2023-02-15T06:11:41;102469.03;;;2.95;100.00
16016;BME280;8112;53.592;10.184;2023-02-15T06:16:43;102472.50;;;3.05;100.00
16016;BME280;8112;53.592;10.184;2023-02-15T06:21:44;102473.38;;;2.85;100.00
16016;BME280;8112;53.592;10.184;2023-02-15T06:26:49;102478.59;;;3.10;100.00
16016;BME280;8112;53.592;10.184;2023-02-15T06:31:51;102478.59;;;3.25;100.00
16016;BME280;8112;53.592;10.184;2023-02-15T06:36:52;102482.94;;;3.26;100.00
16016;BME280;8112;53.592;10.184;2023-02-15T06:41:57;102489.88;;;3.27;100.00
16016;BME280;8112;53.592;10.184;2023-02-15T06:46:59;102487.31;;;3.23;100.00
16016;BME280;8112;53.592;10.184;2023-02-15T06:52:01;102489.88;;;3.27;100.00
16016;BME280;8112;53.592;10.184;2023-02-15T06:57:04;102488.16;;;3.06;100.00
16016;BME280;8112;53.592;10.184;2023-02-15T07:02:08;102489.03;;;3.11;100.00
16016;BME280;8112;53.592;10.184;2023-02-15T07:07:10;102473.41;;;3.13;100.00
16016;BME280;8112;53.592;10.184;2023-02-15T07:12:14;102475.16;;;3.30;100.00
16016;BME280;8112;53.592;10.184;2023-02-15T07:17:35;102462.09;;;3.51;100.00
16016;BME280;8112;53.592;10.184;2023-02-15T07:22:38;102455.13;;;3.56;100.00
16016;BME280;8112;53.592;10.184;2023-02-15T07:27:42;102452.56;;;3.32;100.00
16016;BME280;8112;53.592;10.184;2023-02-15T07:32:45;102470.78;;;3.27;100.00
16016;BME280;8112;53.592;10.184;2023-02-15T07:38:05;102459.50;;;3.48;100.00
16016;BME280;8112;53.592;10.184;2023-02-15T07:43:09;102445.56;;;3.52;100.00
16016;BME280;8112;53.592;10.184;2023-02-15T07:48:12;102435.97;;;3.65;100.00
16016;BME280;8112;53.592;10.184;2023-02-15T07:53:13;102425.56;;;3.58;100.00
16016;BME280;8112;53.592;10.184;2023-02-15T07:58:17;102430.81;;;3.51;100.00
16016;BME280;8112;53.592;10.184;2023-02-15T08:03:19;102428.22;;;3.48;100.00
16016;BME280;8112;53.592;10.184;2023-02-15T08:08:21;102428.19;;;3.50;100.00
16016;BME280;8112;53.592;10.184;2023-02-15T08:13:33;102421.16;;;3.78;100.00
16016;BME280;8112;53.592;10.184;2023-02-15T08:18:35;102409.00;;;3.77;100.00
16016;BME280;8112;53.592;10.184;2023-02-15T08:23:37;102412.50;;;3.70;100.00
16016;BME280;8112;53.592;10.184;2023-02-15T08:28:41;102409.88;;;3.68;100.00
16016;BME280;8112;53.592;10.184;2023-02-15T08:33:44;102405.53;;;3.70;100.00
16016;BME280;8112;53.592;10.184;2023-02-15T08:38:47;102402.03;;;3.71;100.00
16016;BME280;8112;53.592;10.184;2023-02-15T08:43:52;102405.59;;;3.50;100.00
16016;BME280;8112;53.592;10.184;2023-02-15T08:48:55;102409.94;;;3.59;100.00
16016;BME280;8112;53.592;10.184;2023-02-15T08:54:01;102403.88;;;3.52;100.00
16016;BME280;8112;53.592;10.184;2023-02-15T08:59:05;102396.06;;;3.49;100.00
16016;BME280;8112;53.592;10.184;2023-02-15T09:04:08;102396.91;;;3.54;100.00
16016;BME280;8112;53.592;10.184;2023-02-15T09:09:10;102386.50;;;3.34;100.00
16016;BME280;8112;53.592;10.184;2023-02-15T09:14:18;102392.59;;;3.42;100.00
16016;BME280;8112;53.592;10.184;2023-02-15T09:19:22;102381.19;;;3.73;100.00
16016;BME280;8112;53.592;10.184;2023-02-15T09:24:24;102386.22;;;4.15;100.00
16016;BME280;8112;53.592;10.184;2023-02-15T09:29:28;102386.25;;;4.10;100.00
16016;BME280;8112;53.592;10.184;2023-02-15T09:34:30;102373.09;;;4.27;100.00
16016;BME280;8112;53.592;10.184;2023-02-15T09:39:40;102366.00;;;4.50;100.00
16016;BME280;8112;53.592;10.184;2023-02-15T09:45:01;102359.72;;;4.73;100.00
16016;BME280;8112;53.592;10.184;2023-02-15T09:50:10;102365.97;;;4.54;100.00
16016;BME280;8112;53.592;10.184;2023-02-15T09:55:23;102360.72;;;4.57;100.00
16016;BME280;8112;53.592;10.184;2023-02-15T10:00:41;102364.81;;;4.88;100.00
16016;BME280;8112;53.592;10.184;2023-02-15T10:05:57;102367.13;;;5.19;100.00
16016;BME280;8112;53.592;10.184;2023-02-15T10:11:09;102367.22;;;5.10;100.00
16016;BME280;8112;53.592;10.184;2023-02-15T10:16:40;102374.88;;;5.28;100.00
16016;BME280;8112;53.592;10.184;2023-02-15T10:21:55;102361.22;;;5.02;100.00
16016;BME280;8112;53.592;10.184;2023-02-15T10:27:05;102366.34;;;5.11;100.00
16016;BME280;8112;53.592;10.184;2023-02-15T10:32:17;102355.97;;;5.02;100.00
16016;BME280;8112;53.592;10.184;2023-02-15T10:37:40;102357.78;;;4.95;100.00
16016;BME280;8112;53.592;10.184;2023-02-15T10:42:59;102362.75;;;5.21;100.00
16016;BME280;8112;53.592;10.184;2023-02-15T10:48:21;102359.50;;;4.96;100.00
16016;BME280;8112;53.592;10.184;2023-02-15T10:53:43;102357.91;;;4.81;100.00
16016;BME280;8112;53.592;10.184;2023-02-15T10:59:00;102354.84;;;5.27;100.00
16016;BME280;8112;53.592;10.184;2023-02-15T11:09:37;102341.97;;;5.10;100.00
16016;BME280;8112;53.592;10.184;2023-02-15T11:14:44;102344.75;;;5.73;100.00
16016;BME280;8112;53.592;10.184;2023-02-15T11:19:55;102328.66;;;6.04;100.00
16016;BME280;8112;53.592;10.184;2023-02-15T11:25:14;102318.66;;;6.31;100.00
16016;BME280;8112;53.592;10.184;2023-02-15T11:30:20;102319.31;;;5.83;100.00
16016;BME280;8112;53.592;10.184;2023-02-15T11:35:28;102313.31;;;5.76;100.00
16016;BME280;8112;53.592;10.184;2023-02-15T11:40:33;102309.47;;;6.05;100.00
16016;BME280;8112;53.592;10.184;2023-02-15T11:45:36;102306.44;;;6.32;100.00
16016;BME280;8112;53.592;10.184;2023-02-15T11:50:41;102295.50;;;6.03;100.00
16016;BME280;8112;53.592;10.184;2023-02-15T11:55:46;102282.72;;;6.39;100.00
16016;BME280;8112;53.592;10.184;2023-02-15T12:00:52;102261.13;;;6.77;100.00
16016;BME280;8112;53.592;10.184;2023-02-15T12:06:02;102265.25;;;6.41;100.00
16016;BME280;8112;53.592;10.184;2023-02-15T12:11:09;102259.91;;;6.48;100.00
16016;BME280;8112;53.592;10.184;2023-02-15T12:16:14;102255.69;;;6.40;100.00
16016;BME280;8112;53.592;10.184;2023-02-15T12:21:26;102256.91;;;6.69;100.00
16016;BME280;8112;53.592;10.184;2023-02-15T12:26:30;102240.63;;;6.52;100.00
16016;BME280;8112;53.592;10.184;2023-02-15T12:31:38;102242.91;;;6.70;100.00
16016;BME280;8112;53.592;10.184;2023-02-15T12:36:46;102241.91;;;7.23;100.00
16016;BME280;8112;53.592;10.184;2023-02-15T12:42:03;102235.38;;;6.99;100.00
16016;BME280;8112;53.592;10.184;2023-02-15T12:47:18;102234.91;;;7.24;100.00
16016;BME280;8112;53.592;10.184;2023-02-15T12:52:25;102220.00;;;7.65;100.00
16016;BME280;8112;53.592;10.184;2023-02-15T12:57:30;102200.91;;;7.60;100.00
16016;BME280;8112;53.592;10.184;2023-02-15T13:02:40;102206.34;;;7.49;100.00
16016;BME280;8112;53.592;10.184;2023-02-15T13:07:50;102200.50;;;7.38;100.00
16016;BME280;8112;53.592;10.184;2023-02-15T13:12:53;102202.28;;;6.95;100.00
16016;BME280;8112;53.592;10.184;2023-02-15T13:17:55;102198.81;;;6.93;100.00
16016;BME280;8112;53.592;10.184;2023-02-15T13:23:03;102195.84;;;7.10;100.00
16016;BME280;8112;53.592;10.184;2023-02-15T13:28:11;102183.00;;;8.12;100.00
16016;BME280;8112;53.592;10.184;2023-02-15T13:33:21;102166.63;;;9.31;100.00
16016;BME280;8112;53.592;10.184;2023-02-15T13:38:51;102158.47;;;10.46;100.00
16016;BME280;8112;53.592;10.184;2023-02-15T13:44:05;102163.94;;;9.88;100.00
16016;BME280;8112;53.592;10.184;2023-02-15T13:49:19;102161.72;;;10.02;100.00
16016;BME280;8112;53.592;10.184;2023-02-15T13:54:56;102142.66;;;11.18;100.00
16016;BME280;8112;53.592;10.184;2023-02-15T14:00:11;102140.09;;;11.16;100.00
16016;BME280;8112;53.592;10.184;2023-02-15T14:05:29;102138.78;;;10.06;100.00
16016;BME280;8112;53.592;10.184;2023-02-15T14:10:45;102138.34;;;9.93;100.00
16016;BME280;8112;53.592;10.184;2023-02-15T14:15:51;102126.78;;;9.97;100.00
16016;BME280;8112;53.592;10.184;2023-02-15T14:21:03;102135.63;;;10.94;100.00
16016;BME280;8112;53.592;10.184;2023-02-15T14:26:15;102121.56;;;11.62;100.00
16016;BME280;8112;53.592;10.184;2023-02-15T14:31:26;102116.19;;;11.64;100.00
16016;BME280;8112;53.592;10.184;2023-02-15T14:36:31;102108.38;;;10.48;100.00
16016;BME280;8112;53.592;10.184;2023-02-15T14:41:41;102106.59;;;9.70;100.00
16016;BME280;8112;53.592;10.184;2023-02-15T14:46:52;102119.47;;;8.94;100.00
16016;BME280;8112;53.592;10.184;2023-02-15T14:52:04;102115.78;;;8.38;100.00
16016;BME280;8112;53.592;10.184;2023-02-15T14:57:25;102124.44;;;8.10;100.00
16016;BME280;8112;53.592;10.184;2023-02-15T15:02:30;102122.03;;;8.01;100.00
16016;BME280;8112;53.592;10.184;2023-02-15T15:07:44;102114.44;;;7.90;100.00
16016;BME280;8112;53.592;10.184;2023-02-15T15:12:49;102114.53;;;7.85;100.00
16016;BME280;8112;53.592;10.184;2023-02-15T15:18:02;102114.06;;;7.71;100.00
16016;BME280;8112;53.592;10.184;2023-02-15T15:28:55;102119.16;;;7.39;100.00
16016;BME280;8112;53.592;10.184;2023-02-15T15:45:43;102105.28;;;6.96;100.00
16016;BME280;8112;53.592;10.184;2023-02-15T15:50:52;102111.09;;;6.68;100.00
16016;BME280;8112;53.592;10.184;2023-02-15T15:55:59;102104.63;;;6.43;100.00
16016;BME280;8112;53.592;10.184;2023-02-15T16:01:08;102095.34;;;6.24;100.00
16016;BME280;8112;53.592;10.184;2023-02-15T16:06:13;102087.88;;;6.04;100.00
16016;BME280;8112;53.592;10.184;2023-02-15T16:11:19;102089.84;;;5.90;100.00
16016;BME280;8112;53.592;10.184;2023-02-15T16:16:26;102086.75;;;5.66;100.00
16016;BME280;8112;53.592;10.184;2023-02-15T16:21:31;102086.13;;;5.50;100.00
16016;BME280;8112;53.592;10.184;2023-02-15T16:27:10;102087.19;;;5.38;100.00
16016;BME280;8112;53.592;10.184;2023-02-15T16:32:26;102082.06;;;5.32;100.00
16016;BME280;8112;53.592;10.184;2023-02-15T16:37:33;102083.09;;;5.21;100.00
16016;BME280;8112;53.592;10.184;2023-02-15T16:42:38;102084.13;;;5.09;100.00
16016;BME280;8112;53.592;10.184;2023-02-15T16:47:44;102073.84;;;4.97;100.00
16016;BME280;8112;53.592;10.184;2023-02-15T16:52:47;102089.66;;;4.86;100.00
16016;BME280;8112;53.592;10.184;2023-02-15T16:57:50;102076.69;;;4.80;100.00
16016;BME280;8112;53.592;10.184;2023-02-15T17:03:01;102069.84;;;4.71;100.00
16016;BME280;8112;53.592;10.184;2023-02-15T17:08:12;102058.66;;;4.61;100.00
16016;BME280;8112;53.592;10.184;2023-02-15T17:13:16;102050.91;;;4.53;100.00
16016;BME280;8112;53.592;10.184;2023-02-15T17:18:22;102047.56;;;4.42;100.00
16016;BME280;8112;53.592;10.184;2023-02-15T17:23:28;102046.75;;;4.35;100.00
16016;BME280;8112;53.592;10.184;2023-02-15T17:28:31;102055.53;;;4.31;100.00
16016;BME280;8112;53.592;10.184;2023-02-15T17:33:38;102058.13;;;4.33;100.00
16016;BME280;8112;53.592;10.184;2023-02-15T17:38:59;102071.19;;;4.31;100.00
16016;BME280;8112;53.592;10.184;2023-02-15T17:44:03;102068.56;;;4.31;100.00
16016;BME280;8112;53.592;10.184;2023-02-15T17:49:24;102060.75;;;4.31;100.00
16016;BME280;8112;53.592;10.184;2023-02-15T17:54:28;102064.28;;;4.27;100.00
16016;BME280;8112;53.592;10.184;2023-02-15T17:59:47;102074.84;;;4.14;100.00
16016;BME280;8112;53.592;10.184;2023-02-15T18:05:15;102082.09;;;3.84;100.00
16016;BME280;8112;53.592;10.184;2023-02-15T18:10:34;102082.19;;;3.70;100.00
16016;BME280;8112;53.592;10.184;2023-02-15T18:15:54;102091.88;;;3.59;100.00
16016;BME280;8112;53.592;10.184;2023-02-15T18:21:00;102075.38;;;3.57;100.00
16016;BME280;8112;53.592;10.184;2023-02-15T18:26:02;102064.00;;;3.63;100.00
16016;BME280;8112;53.592;10.184;2023-02-15T18:31:03;102068.38;;;3.61;100.00
16016;BME280;8112;53.592;10.184;2023-02-15T18:36:13;102068.47;;;3.51;100.00
16016;BME280;8112;53.592;10.184;2023-02-15T18:41:17;102064.09;;;3.52;100.00
16016;BME280;8112;53.592;10.184;2023-02-15T18:46:19;102052.81;;;3.51;100.00
16016;BME280;8112;53.592;10.184;2023-02-15T18:51:23;102043.28;;;3.47;100.00
16016;BME280;8112;53.592;10.184;2023-02-15T18:56:25;102041.66;;;3.34;100.00
16016;BME280;8112;53.592;10.184;2023-02-15T19:01:28;102040.00;;;3.25;100.00
16016;BME280;8112;53.592;10.184;2023-02-15T19:06:31;102037.38;;;3.23;100.00
16016;BME280;8112;53.592;10.184;2023-02-15T19:11:35;102030.44;;;3.27;100.00
16016;BME280;8112;53.592;10.184;2023-02-15T19:16:37;102028.66;;;3.27;100.00
16016;BME280;8112;53.592;10.184;2023-02-15T19:21:40;102026.97;;;3.23;100.00
16016;BME280;8112;53.592;10.184;2023-02-15T19:26:43;102036.50;;;3.26;100.00
16016;BME280;8112;53.592;10.184;2023-02-15T19:31:46;102037.41;;;3.20;100.00
16016;BME280;8112;53.592;10.184;2023-02-15T19:36:51;102028.75;;;3.18;100.00
16016;BME280;8112;53.592;10.184;2023-02-15T19:41:55;102022.66;;;3.18;100.00
16016;BME280;8112;53.592;10.184;2023-02-15T19:46:57;102011.41;;;3.14;100.00
16016;BME280;8112;53.592;10.184;2023-02-15T19:52:01;102016.63;;;3.14;100.00
16016;BME280;8112;53.592;10.184;2023-02-15T19:57:03;102013.22;;;3.03;100.00
16016;BME280;8112;53.592;10.184;2023-02-15T20:02:12;102005.47;;;2.96;100.00
16016;BME280;8112;53.592;10.184;2023-02-15T20:07:21;102015.03;;;2.93;100.00
16016;BME280;8112;53.592;10.184;2023-02-15T20:12:25;102019.41;;;2.88;100.00
16016;BME280;8112;53.592;10.184;2023-02-15T20:17:30;102035.06;;;2.84;100.00
16016;BME280;8112;53.592;10.184;2023-02-15T20:22:33;102041.97;;;2.87;100.00
16016;BME280;8112;53.592;10.184;2023-02-15T20:27:35;102034.13;;;2.93;100.00
16016;BME280;8112;53.592;10.184;2023-02-15T20:32:37;102014.16;;;2.95;100.00
16016;BME280;8112;53.592;10.184;2023-02-15T20:37:40;102015.00;;;2.96;100.00
16016;BME280;8112;53.592;10.184;2023-02-15T20:42:44;102008.09;;;2.93;100.00
16016;BME280;8112;53.592;10.184;2023-02-15T20:47:47;102010.72;;;2.89;100.00
16016;BME280;8112;53.592;10.184;2023-02-15T20:52:52;102012.47;;;2.83;100.00
16016;BME280;8112;53.592;10.184;2023-02-15T20:57:55;102016.84;;;2.78;100.00
16016;BME280;8112;53.592;10.184;2023-02-15T21:02:58;102006.47;;;2.77;100.00
16016;BME280;8112;53.592;10.184;2023-02-15T21:08:11;101998.59;;;2.81;100.00
16016;BME280;8112;53.592;10.184;2023-02-15T21:13:19;102008.19;;;2.73;100.00
16016;BME280;8112;53.592;10.184;2023-02-15T21:18:25;102003.84;;;2.77;100.00
16016;BME280;8112;53.592;10.184;2023-02-15T21:23:32;101995.19;;;2.73;100.00
16016;BME280;8112;53.592;10.184;2023-02-15T21:28:35;101996.06;;;2.70;100.00
16016;BME280;8112;53.592;10.184;2023-02-15T21:33:39;101988.31;;;2.66;100.00
16016;BME280;8112;53.592;10.184;2023-02-15T21:38:45;101983.97;;;2.60;100.00
16016;BME280;8112;53.592;10.184;2023-02-15T21:43:48;101984.84;;;2.61;100.00
16016;BME280;8112;53.592;10.184;2023-02-15T21:49:08;101974.47;;;2.53;100.00
16016;BME280;8112;53.592;10.184;2023-02-15T21:54:12;101979.66;;;2.56;100.00
16016;BME280;8112;53.592;10.184;2023-02-15T21:59:16;101977.06;;;2.53;100.00
16016;BME280;8112;53.592;10.184;2023-02-15T22:04:21;101985.78;;;2.50;100.00
16016;BME280;8112;53.592;10.184;2023-02-15T22:09:26;101991.00;;;2.47;100.00
16016;BME280;8112;53.592;10.184;2023-02-15T22:14:34;101981.44;;;2.43;100.00
16016;BME280;8112;53.592;10.184;2023-02-15T22:19:38;101981.47;;;2.40;100.00
16016;BME280;8112;53.592;10.184;2023-02-15T22:24:42;101971.09;;;2.37;100.00
16016;BME280;8112;53.592;10.184;2023-02-15T22:29:45;101978.91;;;2.32;100.00
16016;BME280;8112;53.592;10.184;2023-02-15T22:34:47;101981.50;;;2.35;100.00
16016;BME280;8112;53.592;10.184;2023-02-15T22:39:51;101976.31;;;2.29;100.00
16016;BME280;8112;53.592;10.184;2023-02-15T22:44:56;101976.31;;;2.29;100.00
16016;BME280;8112;53.592;10.184;2023-02-15T22:49:58;101971.97;;;2.31;100.00
16016;BME280;8112;53.592;10.184;2023-02-15T22:55:03;101970.25;;;2.30;100.00
16016;BME280;8112;53.592;10.184;2023-02-15T23:00:06;101957.25;;;2.27;100.00
16016;BME280;8112;53.592;10.184;2023-02-15T23:05:16;101951.19;;;2.25;100.00
16016;BME280;8112;53.592;10.184;2023-02-15T23:10:23;101954.63;;;2.33;100.00
16016;BME280;8112;53.592;10.184;2023-02-15T23:15:26;101953.78;;;2.33;100.00
16016;BME280;8112;53.592;10.184;2023-02-15T23:20:28;101941.59;;;2.33;100.00
16016;BME280;8112;53.592;10.184;2023-02-15T23:25:32;101939.84;;;2.35;100.00
16016;BME280;8112;53.592;10.184;2023-02-15T23:30:33;101937.25;;;2.35;100.00
16016;BME280;8112;53.592;10.184;2023-02-15T23:35:35;101939.00;;;2.33;100.00
16016;BME280;8112;53.592;10.184;2023-02-15T23:40:39;101938.19;;;2.30;100.00
16016;BME280;8112;53.592;10.184;2023-02-15T23:45:59;101949.44;;;2.27;100.00
16016;BME280;8112;53.592;10.184;2023-02-15T23:51:01;101941.66;;;2.24;100.00
16016;BME280;8112;53.592;10.184;2023-02-15T23:56:05;101937.31;;;2.29;100.00
